Terminal Aerodrome Forecast
Issued by NWS

Home | Current Version | Previous Version | Text Only | Print | Product List | Glossary On
Versions: 1 2 3 4 5 6 7 8 9 10 11 12 13 14 15 16 17
107
FTUS43 KMQT 092339
TAFSAW
TAF
KSAW 092339Z 1000/1024 34014G21KT 2SM -SHSN OVC014
      TEMPO 1000/1003 3/4SM -SHSN BLSN
     FM100900 35012G20KT 1SM -SHSN OVC015
     FM101800 35012G19KT 2SM -SHSN OVC018
     FM102100 35012G19KT 3SM -SHSN OVC022=

USA.gov is the U.S. government's official web portal to all federal, state and local government web resources and services.